Aeroporto :
LOGIN :

Iscrizione | Disclaimer

   EN    FR    IT 

 










Sommario :    VFR   VFR Marginale   IFR   IFR Intensivo   IFR Molto Intensivo
Visibilità : 
Base nubi : 
>= 8 km
>= 3000ft
5 / 8 km
1000 / 3000 ft
1500m / 5 km
500 / 1000 ft
800 / 1500m
200 / 500 ft
< 800m
< 200 ft
Simboli :   Temporali  Nebbia  Neve Forte  Precipitazioni Forti  Vento > 20 kt
SIGMETs :   Varie  Temporali  Ghiacco  Turbolenza  Onda orograficha  Ceneri Vulcaniche







- Altitudine del aeroporto : 294 ft
- Codice IATA : NAP


LIRN - Naples Capodichino

ULTIMO METAR :
  • 221120Z 07009KT 040V110 CAVOK 20/05 Q1024 NOSIG

METARs OBSOLETI :
  • 221050Z 12005KT 090V190 CAVOK 20/04 Q1024 NOSIG
  • 221020Z 03011KT 340V060 CAVOK 19/04 Q1024 NOSIG
  • 220950Z 03011KT CAVOK 18/04 Q1025 NOSIG
  • 220920Z 04013KT 360V070 CAVOK 18/03 Q1025 NOSIG
  • 220850Z 05012KT CAVOK 17/03 Q1025 NOSIG

TAF TAF LIRN
Valido dal 22 a 12 ore il 23 a 12 ore UTC


221100Z 2212/2312 06010KT CAVOK
Nessun NOTAM noto per questo aeroporto.
2 SIGMETs conosciuti per la FIR Roma (LIRR) :
 
Temporali affogati
LIRR SIGMET 2 VALID 221130/221430 LIIB
LIRR ROMA FIR EMBD TS FCST WI N3912 E00757 - N3935 E01117 - N3801 E01434 - N3634 E01537 - N3629 E01128 - N3729 E01128 - N3856 E00754 - N3912 E00757 TOP ABV FL150 MOV ENE NC=
Temporali affogati
LIRR SIGMET 1 VALID 220749/221130 LIIB
LIRR ROMA FIR EMBD TS FCST WI N3912 E00757 - N3935 E01117 - N3801 E01434 - N3634 E01537 - N3629 E01128 - N3729 E01128 - N3856 E00754 - N3912 E00757 TOP ABV FL150 MOV ENE NC=



MetMap, La meteo Aeronautica in un colpo d'occhio ! - Copyright ORBIFLY Dicembre 2007 - Disclaimer

ORBIFLY MET'MAP TEAM :

Programmazione e sviluppo : Alexandra Zaïnal
Concezione e sviluppo : Baudouin d'Aumeries
Co-Programmazione e sviluppo : Marc-Olivier Méhu
Supporto tecnico e logistico : Manuel Goepfert
Aiuto per la traduzione : Arnaldo La Scala

Contatto : metmap@orbifly.com




FONTI E CREDITI :

   NOAA